createdAt,value
2018-04-27T00:02:07.780Z,52.10
2018-04-27T00:04:34.104Z,52.40
2018-04-27T00:07:01.213Z,52.60
2018-04-27T00:09:27.523Z,52.50
2018-04-27T00:11:53.809Z,52.40
2018-04-27T00:14:22.775Z,52.40
2018-04-27T00:16:49.047Z,52.40
2018-04-27T00:19:15.407Z,52.40
2018-04-27T00:21:41.692Z,52.70
2018-04-27T00:24:08.735Z,53.00
2018-04-27T00:26:35.768Z,53.00
2018-04-27T00:29:02.778Z,52.90
2018-04-27T00:31:29.095Z,53.10
2018-04-27T00:33:55.417Z,52.90
2018-04-27T00:36:21.720Z,52.70
2018-04-27T00:38:48.774Z,52.90
2018-04-27T00:41:15.816Z,53.30
2018-04-27T00:43:42.855Z,53.40
2018-04-27T00:46:09.164Z,53.30
2018-04-27T00:48:35.478Z,53.70
2018-04-27T00:51:01.795Z,54.00
2018-04-27T00:53:28.088Z,54.70
2018-04-27T00:55:55.188Z,56.00
2018-04-27T00:58:21.511Z,56.00
2018-04-27T01:00:47.824Z,56.20
2018-04-27T01:03:14.197Z,55.90
2018-04-27T01:05:40.517Z,56.80
2018-04-27T01:08:06.830Z,56.30
2018-04-27T01:10:33.135Z,56.50
2018-04-27T01:13:00.172Z,57.30
2018-04-27T01:15:27.214Z,57.20
2018-04-27T01:17:54.252Z,57.50
2018-04-27T01:20:20.580Z,57.30
2018-04-27T01:22:46.946Z,57.50
2018-04-27T01:25:13.275Z,57.60
2018-04-27T01:27:39.595Z,57.40
2018-04-27T01:30:06.796Z,57.30
2018-04-27T01:32:33.079Z,57.30
2018-04-27T01:35:00.159Z,57.40
2018-04-27T01:37:26.430Z,57.30
2018-04-27T01:39:52.732Z,57.50
2018-04-27T01:42:19.039Z,57.70
2018-04-27T01:44:45.321Z,57.60
2018-04-27T01:47:11.623Z,57.70
2018-04-27T01:49:37.930Z,57.40
2018-04-27T01:52:04.247Z,57.30
2018-04-27T01:54:31.335Z,57.60
2018-04-27T01:56:57.653Z,57.60
2018-04-27T01:59:23.951Z,57.80
2018-04-27T02:01:50.995Z,58.30
2018-04-27T02:04:18.043Z,58.60
2018-04-27T02:06:45.108Z,58.60
2018-04-27T02:09:11.409Z,58.60
2018-04-27T02:11:37.705Z,59.00
2018-04-27T02:14:04.048Z,59.00
2018-04-27T02:16:30.349Z,59.40
2018-04-27T02:18:56.683Z,59.70
2018-04-27T02:21:22.976Z,59.80
2018-04-27T02:23:50.012Z,60.10
2018-04-27T02:26:16.312Z,60.00
2018-04-27T02:28:42.628Z,60.20
2018-04-27T02:31:08.949Z,59.70
2018-04-27T02:33:35.260Z,59.70
2018-04-27T02:36:02.341Z,60.30
2018-04-27T02:38:28.645Z,60.30
2018-04-27T02:40:54.985Z,60.40
2018-04-27T02:43:21.272Z,60.50
2018-04-27T02:45:47.577Z,60.90
2018-04-27T02:48:13.904Z,60.90
2018-04-27T02:50:40.199Z,60.10
2018-04-27T02:53:06.489Z,60.70
2018-04-27T02:55:32.858Z,60.60
2018-04-27T02:57:59.158Z,59.40
2018-04-27T03:00:25.453Z,59.50
2018-04-27T03:02:52.776Z,59.50
2018-04-27T03:05:19.128Z,59.70
2018-04-27T03:07:45.456Z,60.10
2018-04-27T03:10:11.775Z,61.40
2018-04-27T03:12:38.094Z,61.90
2018-04-27T03:15:05.128Z,61.00
2018-04-27T03:17:32.181Z,59.80
2018-04-27T03:19:59.232Z,59.40
2018-04-27T03:22:26.279Z,58.80
2018-04-27T03:24:53.340Z,59.20
2018-04-27T03:27:19.635Z,59.10
2018-04-27T03:29:45.954Z,59.50
2018-04-27T03:32:12.248Z,59.80
2018-04-27T03:34:38.546Z,60.30
2018-04-27T03:37:04.845Z,61.00
2018-04-27T03:39:31.132Z,61.20
2018-04-27T03:41:57.441Z,61.40
2018-04-27T03:44:24.480Z,61.70
2018-04-27T03:46:51.800Z,61.80
2018-04-27T03:49:18.095Z,62.40
2018-04-27T03:51:44.396Z,61.60
2018-04-27T03:54:11.445Z,62.40
2018-04-27T03:56:38.519Z,62.20
2018-04-27T03:59:04.834Z,62.20
2018-04-27T04:01:44.100Z,62.40
2018-04-27T04:04:22.478Z,62.40
2018-04-27T04:06:49.538Z,62.30
2018-04-27T04:09:15.834Z,62.30
2018-04-27T04:11:42.904Z,63.60
2018-04-27T04:14:09.933Z,62.10
2018-04-27T04:16:36.828Z,62.10
2018-04-27T04:19:03.131Z,62.80
2018-04-27T04:21:30.168Z,64.50
2018-04-27T04:23:57.217Z,64.60
2018-04-27T04:26:24.260Z,63.90
2018-04-27T04:28:51.344Z,61.10
2018-04-27T04:31:17.645Z,61.00
2018-04-27T04:33:45.491Z,58.70
2018-04-27T04:36:11.775Z,58.70
2018-04-27T04:38:38.106Z,57.20
2018-04-27T04:41:04.403Z,54.30
2018-04-27T04:43:31.448Z,52.30
2018-04-27T04:45:58.492Z,50.90
2018-04-27T04:48:26.378Z,48.50
2018-04-27T04:50:53.412Z,47.90
2018-04-27T04:53:20.459Z,47.90
2018-04-27T04:55:47.491Z,49.20
2018-04-27T04:58:13.795Z,49.00
2018-04-27T05:00:40.092Z,50.50
2018-04-27T05:03:06.444Z,49.50
2018-04-27T05:05:32.765Z,49.60
2018-04-27T05:07:59.068Z,50.80
2018-04-27T05:10:26.114Z,51.80
2018-04-27T05:12:53.155Z,53.20
2018-04-27T05:15:20.241Z,54.00
2018-04-27T05:17:46.558Z,53.90
2018-04-27T05:20:12.668Z,54.70
2018-04-27T05:22:39.685Z,54.10
2018-04-27T05:25:06.003Z,54.10
2018-04-27T05:27:32.360Z,52.30
2018-04-27T05:29:58.645Z,52.00
2018-04-27T05:32:25.898Z,50.80
2018-04-27T05:34:52.207Z,48.40
2018-04-27T05:37:18.516Z,43.60
2018-04-27T05:39:45.620Z,34.80
2018-04-27T05:42:12.868Z,34.70
2018-04-27T05:44:39.240Z,31.00
2018-04-27T05:47:05.646Z,28.50
2018-04-27T05:49:31.972Z,25.80
2018-04-27T05:51:59.117Z,23.50
2018-04-27T05:54:25.478Z,22.10
2018-04-27T05:56:51.799Z,21.30
2018-04-27T05:59:18.127Z,20.10
2018-04-27T06:01:44.685Z,19.20
2018-04-27T06:04:12.915Z,18.80
2018-04-27T06:06:39.239Z,18.30
2018-04-27T06:09:05.594Z,17.90
2018-04-27T06:11:32.058Z,17.10
2018-04-27T06:13:58.367Z,16.60
2018-04-27T06:16:24.755Z,16.20
2018-04-27T06:18:51.099Z,15.30
2018-04-27T06:21:17.402Z,16.00
2018-04-27T06:23:44.513Z,14.70
2018-04-27T06:26:10.823Z,14.80
2018-04-27T06:28:50.089Z,14.10
2018-04-27T06:31:16.428Z,14.10
2018-04-27T06:33:43.552Z,14.10
2018-04-27T06:36:09.955Z,14.10
2018-04-27T06:38:36.355Z,13.40
2018-04-27T06:41:03.467Z,13.60
2018-04-27T06:43:29.895Z,13.50
2018-04-27T06:45:56.229Z,13.80
2018-04-27T06:48:22.571Z,13.00
2018-04-27T06:50:48.889Z,13.10
2018-04-27T06:53:15.246Z,13.10
2018-04-27T06:55:41.720Z,12.90
2018-04-27T06:58:08.096Z,13.10
2018-04-27T07:00:34.407Z,12.20
2018-04-27T07:03:00.748Z,11.90
2018-04-27T07:05:27.216Z,11.90
2018-04-27T07:07:54.572Z,12.40
2018-04-27T07:10:20.893Z,12.40
2018-04-27T07:12:47.332Z,12.50
2018-04-27T07:15:13.649Z,13.00
2018-04-27T07:17:39.951Z,13.60
2018-04-27T07:20:06.236Z,13.80
2018-04-27T07:22:33.261Z,13.90
2018-04-27T07:24:59.556Z,13.90
2018-04-27T07:27:25.856Z,13.20
2018-04-27T07:29:52.893Z,14.10
2018-04-27T07:32:19.923Z,13.80
2018-04-27T07:34:46.235Z,13.70
2018-04-27T07:37:12.603Z,13.70
2018-04-27T07:39:39.698Z,12.80
2018-04-27T07:42:06.716Z,13.50
2018-04-27T07:44:33.047Z,13.50
2018-04-27T07:46:59.367Z,14.00
2018-04-27T07:49:26.476Z,13.50
2018-04-27T07:51:52.793Z,13.50
2018-04-27T07:54:19.159Z,12.90
2018-04-27T07:56:45.491Z,12.20
2018-04-27T07:59:12.813Z,12.80
2018-04-27T08:01:39.263Z,14.30
2018-04-27T08:04:05.625Z,17.40
2018-04-27T08:06:32.777Z,20.30
2018-04-27T08:08:59.848Z,21.80
2018-04-27T08:11:26.203Z,21.70
2018-04-27T08:13:52.530Z,22.30
2018-04-27T08:16:18.861Z,22.40
2018-04-27T08:18:45.240Z,22.40
2018-04-27T08:21:12.316Z,23.50
2018-04-27T08:23:39.360Z,24.20
2018-04-27T08:26:06.425Z,24.60
2018-04-27T08:28:32.758Z,24.60
2018-04-27T08:30:59.060Z,24.50
2018-04-27T08:33:26.453Z,24.60
2018-04-27T08:35:53.118Z,24.50
2018-04-27T08:38:19.665Z,25.20
2018-04-27T08:40:46.734Z,25.50
2018-04-27T08:43:13.779Z,25.50
2018-04-27T08:45:40.863Z,26.00
2018-04-27T08:48:07.204Z,25.90
2018-04-27T08:50:33.548Z,25.50
2018-04-27T08:52:59.867Z,26.00
2018-04-27T08:55:26.179Z,25.30
2018-04-27T08:57:52.511Z,26.20
2018-04-27T09:00:18.924Z,26.60
2018-04-27T09:02:45.974Z,26.00
2018-04-27T09:05:13.019Z,26.70
2018-04-27T09:07:40.087Z,26.50
2018-04-27T09:10:06.390Z,26.50
2018-04-27T09:12:32.712Z,26.30
2018-04-27T09:14:59.036Z,26.90
2018-04-27T09:17:25.364Z,26.80
2018-04-27T09:19:51.660Z,27.00
2018-04-27T09:22:17.952Z,26.60
2018-04-27T09:24:45.017Z,27.20
2018-04-27T09:27:11.408Z,27.10
2018-04-27T09:29:37.767Z,27.30
2018-04-27T09:32:04.849Z,26.50
2018-04-27T09:34:31.168Z,26.40
2018-04-27T09:36:57.459Z,27.10
2018-04-27T09:39:23.785Z,27.40
2018-04-27T09:41:50.112Z,26.40
2018-04-27T09:44:16.457Z,26.30
2018-04-27T09:46:42.778Z,26.20
2018-04-27T09:49:09.108Z,27.30
2018-04-27T09:51:35.428Z,26.40
2018-04-27T09:54:01.771Z,26.20
2018-04-27T09:56:28.079Z,26.40
2018-04-27T09:58:54.424Z,26.30
2018-04-27T10:01:20.763Z,26.50
2018-04-27T10:03:47.084Z,27.20
2018-04-27T10:06:13.416Z,26.90
2018-04-27T10:08:39.739Z,27.40
2018-04-27T10:11:06.035Z,26.30
2018-04-27T10:13:32.339Z,27.50
2018-04-27T10:15:58.618Z,27.20
2018-04-27T10:18:24.944Z,26.80
2018-04-27T10:20:51.274Z,27.60
2018-04-27T10:23:17.632Z,26.70
2018-04-27T10:25:43.960Z,26.40
2018-04-27T10:28:10.261Z,26.70
2018-04-27T10:30:36.536Z,26.80
2018-04-27T10:33:02.849Z,27.90
2018-04-27T10:35:29.145Z,27.70
2018-04-27T10:37:55.478Z,27.50
2018-04-27T10:40:21.823Z,27.20
2018-04-27T10:42:48.147Z,27.70
2018-04-27T10:45:14.478Z,28.40
2018-04-27T10:47:40.832Z,27.50
2018-04-27T10:50:07.175Z,27.70
2018-04-27T10:52:33.531Z,28.40
2018-04-27T10:55:00.614Z,28.60
2018-04-27T10:57:26.939Z,29.50
2018-04-27T10:59:53.242Z,28.40
2018-04-27T11:02:20.319Z,28.20
2018-04-27T11:04:46.664Z,28.10
2018-04-27T11:07:13.944Z,28.90
2018-04-27T11:12:13.586Z,29.00
2018-04-27T11:14:39.903Z,29.60
2018-04-27T11:17:06.280Z,30.00
2018-04-27T11:19:33.335Z,29.50
2018-04-27T11:21:59.800Z,29.60
2018-04-27T11:24:26.121Z,29.50
2018-04-27T11:26:52.479Z,29.20
2018-04-27T11:29:18.791Z,29.00
2018-04-27T11:31:45.531Z,29.60
2018-04-27T11:34:11.845Z,30.00
2018-04-27T11:36:38.974Z,30.30
2018-04-27T11:39:06.002Z,30.70
2018-04-27T11:41:32.276Z,30.70
2018-04-27T11:43:58.611Z,30.40
2018-04-27T11:46:25.037Z,29.90
2018-04-27T11:48:51.376Z,30.00
2018-04-27T11:51:17.695Z,30.00
2018-04-27T11:53:44.048Z,30.10
2018-04-27T11:56:10.378Z,30.30
2018-04-27T11:58:37.244Z,30.00
2018-04-27T12:01:03.616Z,30.30
2018-04-27T12:03:30.684Z,29.90
2018-04-27T12:05:57.031Z,29.90
2018-04-27T12:08:23.352Z,30.00
2018-04-27T12:10:49.683Z,30.80
2018-04-27T12:13:16.019Z,30.30
2018-04-27T12:15:42.343Z,30.00
2018-04-27T12:18:08.666Z,31.00
2018-04-27T12:20:34.973Z,30.20
2018-04-27T12:23:02.017Z,30.30
2018-04-27T12:25:29.053Z,30.30
2018-04-27T12:27:55.363Z,30.30
2018-04-27T12:30:21.652Z,30.30
2018-04-27T12:32:47.943Z,30.30
2018-04-27T12:35:14.240Z,30.80
2018-04-27T12:37:40.582Z,30.70
2018-04-27T12:40:06.928Z,30.10
2018-04-27T12:42:33.275Z,29.10
2018-04-27T12:44:59.596Z,29.70
2018-04-27T12:47:25.940Z,29.90
2018-04-27T12:49:53.003Z,30.80
2018-04-27T12:52:20.086Z,30.00
2018-04-27T12:54:46.542Z,29.90
2018-04-27T12:57:12.859Z,29.90
2018-04-27T12:59:39.159Z,30.00
2018-04-27T13:02:05.499Z,30.30
2018-04-27T13:04:31.838Z,30.50
2018-04-27T13:06:58.167Z,30.00
2018-04-27T13:09:24.472Z,29.80
2018-04-27T13:11:51.560Z,30.50
2018-04-27T13:14:17.896Z,29.40
2018-04-27T13:16:44.238Z,29.60
2018-04-27T13:19:10.614Z,29.30
2018-04-27T13:21:36.856Z,29.70
2018-04-27T13:24:03.152Z,29.40
2018-04-27T13:26:29.484Z,29.60
2018-04-27T13:28:55.827Z,29.80
2018-04-27T13:31:22.868Z,29.10
2018-04-27T13:33:49.173Z,29.10
2018-04-27T13:36:15.459Z,28.90
2018-04-27T13:38:41.775Z,29.00
2018-04-27T13:41:08.860Z,29.00
2018-04-27T13:43:35.152Z,28.90
2018-04-27T13:46:02.227Z,29.30
2018-04-27T13:48:28.547Z,29.30
2018-04-27T13:50:55.193Z,29.40
2018-04-27T13:53:21.583Z,29.30
2018-04-27T13:55:47.888Z,29.60
2018-04-27T13:58:14.210Z,28.90
2018-04-27T14:00:40.578Z,28.20
2018-04-27T14:03:06.939Z,28.90
2018-04-27T14:05:34.099Z,29.40
2018-04-27T14:08:00.344Z,29.40
2018-04-27T14:10:26.795Z,28.90
2018-04-27T14:12:53.215Z,28.70
2018-04-27T14:15:19.576Z,28.90
2018-04-27T14:17:45.982Z,28.90
2018-04-27T14:20:12.311Z,29.00
2018-04-27T14:22:38.614Z,28.80
2018-04-27T14:25:04.942Z,28.90
2018-04-27T14:27:32.016Z,28.90
2018-04-27T14:29:58.358Z,28.90
2018-04-27T14:32:24.766Z,28.90
2018-04-27T14:34:51.085Z,28.80
2018-04-27T14:37:18.159Z,28.70
2018-04-27T14:39:44.460Z,28.60
2018-04-27T14:42:11.568Z,28.70
2018-04-27T14:44:37.896Z,28.70
2018-04-27T14:47:04.330Z,29.10
2018-04-27T14:49:31.017Z,28.20
2018-04-27T14:51:57.320Z,28.30
2018-04-27T14:54:23.645Z,28.50
2018-04-27T14:56:49.957Z,28.10
2018-04-27T14:59:16.517Z,28.40
2018-04-27T15:01:42.827Z,28.20
2018-04-27T15:04:09.131Z,28.20
2018-04-27T15:06:35.472Z,28.10
2018-04-27T15:09:01.796Z,27.90
2018-04-27T15:11:28.418Z,27.80
2018-04-27T15:13:54.735Z,28.10
2018-04-27T15:16:21.118Z,28.60
2018-04-27T15:18:47.655Z,28.70
2018-04-27T15:21:13.965Z,28.00
2018-04-27T15:23:40.292Z,28.20
2018-04-27T15:26:06.595Z,27.90
2018-04-27T15:28:34.671Z,28.60
2018-04-27T15:31:01.794Z,28.90
2018-04-27T15:33:28.127Z,28.80
2018-04-27T15:38:28.519Z,29.00
2018-04-27T15:40:54.851Z,29.00
2018-04-27T15:43:21.216Z,29.10
2018-04-27T15:45:48.335Z,28.60
2018-04-27T15:48:15.258Z,29.00
2018-04-27T15:50:41.644Z,28.70
2018-04-27T15:53:08.084Z,29.10
2018-04-27T15:55:34.380Z,28.70
2018-04-27T15:58:00.679Z,28.60
2018-04-27T16:00:27.773Z,28.50
2018-04-27T16:02:54.079Z,28.40
2018-04-27T16:05:21.277Z,28.80
2018-04-27T16:07:47.656Z,28.70
2018-04-27T16:10:13.988Z,29.20
2018-04-27T16:12:40.338Z,29.40
2018-04-27T16:15:06.721Z,28.80
2018-04-27T16:17:33.831Z,29.10
2018-04-27T16:20:00.157Z,29.00
2018-04-27T16:22:26.540Z,29.10
2018-04-27T16:24:53.613Z,29.10
2018-04-27T16:27:19.939Z,29.00
2018-04-27T16:29:47.134Z,29.40
2018-04-27T16:32:13.568Z,29.30
2018-04-27T16:34:40.180Z,29.30
2018-04-27T16:37:06.564Z,29.30
2018-04-27T16:39:32.989Z,29.40
2018-04-27T16:42:00.204Z,29.40
2018-04-27T16:44:26.479Z,29.30
2018-04-27T16:46:52.815Z,29.30
2018-04-27T16:49:19.931Z,29.60
2018-04-27T16:51:46.344Z,29.60
2018-04-27T16:54:12.676Z,30.90
2018-04-27T16:56:39.024Z,31.30
2018-04-27T16:59:05.371Z,31.70
2018-04-27T17:01:31.721Z,31.80
2018-04-27T17:03:58.072Z,35.00
2018-04-27T17:06:25.185Z,38.80
2018-04-27T17:08:51.630Z,39.00
2018-04-27T17:11:18.023Z,33.50
2018-04-27T17:13:44.396Z,33.00
2018-04-27T17:16:10.731Z,32.80
2018-04-27T17:18:37.037Z,34.20
2018-04-27T17:21:03.375Z,34.30
2018-04-27T17:23:29.695Z,34.20
2018-04-27T17:25:56.051Z,33.50
2018-04-27T17:28:22.387Z,32.90
2018-04-27T17:30:48.675Z,29.00
2018-04-27T17:33:14.987Z,29.80
2018-04-27T17:35:41.319Z,30.50
2018-04-27T17:38:07.674Z,30.00
2018-04-27T17:40:34.024Z,30.90
2018-04-27T17:43:00.685Z,31.10
2018-04-27T17:45:27.056Z,32.90
2018-04-27T17:47:53.389Z,29.90
2018-04-27T17:50:19.713Z,29.30
2018-04-27T17:52:46.017Z,27.40
2018-04-27T17:55:13.063Z,27.50
2018-04-27T17:57:40.132Z,27.50
2018-04-27T18:00:06.447Z,28.00
2018-04-27T18:02:33.489Z,26.60
2018-04-27T18:05:00.563Z,25.50
2018-04-27T18:07:26.933Z,25.50
2018-04-27T18:09:53.217Z,27.20
2018-04-27T18:12:19.550Z,27.20
2018-04-27T18:14:45.848Z,26.80
2018-04-27T18:17:12.177Z,27.70
2018-04-27T18:19:38.504Z,27.10
2018-04-27T18:22:04.882Z,27.90
2018-04-27T18:24:31.202Z,28.30
2018-04-27T18:26:57.534Z,25.40
2018-04-27T18:29:23.927Z,25.10
2018-04-27T18:31:50.248Z,26.20
2018-04-27T18:34:16.584Z,25.50
2018-04-27T18:36:42.929Z,25.00
2018-04-27T18:39:09.252Z,24.80
2018-04-27T18:41:35.570Z,24.90
2018-04-27T18:44:01.896Z,25.50
2018-04-27T18:46:28.200Z,25.50
2018-04-27T18:48:54.540Z,25.50
2018-04-27T18:51:20.845Z,25.50
2018-04-27T18:53:47.172Z,25.60
2018-04-27T18:56:14.349Z,26.00
2018-04-27T18:58:40.667Z,26.00
2018-04-27T19:01:07.056Z,26.10
2018-04-27T19:03:33.368Z,26.40
2018-04-27T19:06:03.514Z,26.20
2018-04-27T19:08:29.832Z,27.20
2018-04-27T19:10:56.266Z,27.80
2018-04-27T19:13:22.572Z,28.30
2018-04-27T19:15:48.920Z,28.20
2018-04-27T19:18:18.270Z,28.90
2018-04-27T19:20:44.625Z,29.00
2018-04-27T19:23:12.249Z,29.80
2018-04-27T19:25:41.217Z,31.60
2018-04-27T19:28:07.611Z,31.50
2018-04-27T19:30:33.947Z,31.50
2018-04-27T19:33:00.298Z,32.80
2018-04-27T19:35:26.642Z,33.00
2018-04-27T19:37:52.976Z,33.90
2018-04-27T19:40:19.468Z,34.50
2018-04-27T19:42:45.830Z,35.00
2018-04-27T19:45:12.826Z,36.20
2018-04-27T19:47:39.915Z,36.70
2018-04-27T19:50:06.254Z,36.20
2018-04-27T19:52:32.651Z,36.50
2018-04-27T19:54:59.068Z,37.40
2018-04-27T19:57:25.411Z,37.10
2018-04-27T19:59:51.763Z,37.50
2018-04-27T20:02:19.159Z,38.80
2018-04-27T20:04:45.511Z,38.40
2018-04-27T20:07:12.664Z,36.80
2018-04-27T20:09:39.771Z,37.00
2018-04-27T20:12:06.335Z,37.50
2018-04-27T20:14:34.996Z,36.50
2018-04-27T20:17:03.633Z,36.50
2018-04-27T20:19:29.951Z,35.70
2018-04-27T20:21:57.058Z,35.20
2018-04-27T20:24:23.469Z,35.10
2018-04-27T20:26:49.729Z,34.80
2018-04-27T20:29:16.081Z,34.80
2018-04-27T20:31:43.827Z,34.90
2018-04-27T20:34:10.198Z,34.90
2018-04-27T20:36:37.496Z,34.60
2018-04-27T20:39:04.671Z,34.60
2018-04-27T20:41:31.002Z,34.80
2018-04-27T20:43:57.321Z,34.60
2018-04-27T20:46:23.679Z,34.80
2018-04-27T20:48:50.893Z,34.80
2018-04-27T20:51:17.230Z,34.80
2018-04-27T20:53:56.336Z,34.80
2018-04-27T20:56:24.468Z,35.10
2018-04-27T20:58:51.585Z,35.80
2018-04-27T21:01:18.709Z,35.70
2018-04-27T21:03:45.648Z,35.50
2018-04-27T21:06:12.019Z,35.60
2018-04-27T21:08:39.815Z,35.80
2018-04-27T21:11:06.891Z,36.00
2018-04-27T21:13:33.236Z,35.90
2018-04-27T21:15:59.561Z,36.20
2018-04-27T21:18:25.883Z,36.70
2018-04-27T21:20:52.199Z,36.40
2018-04-27T21:23:19.295Z,37.10
2018-04-27T21:25:48.093Z,37.10
2018-04-27T21:28:16.431Z,37.20
2018-04-27T21:30:44.391Z,38.80
2018-04-27T21:33:10.729Z,39.10
2018-04-27T21:35:41.717Z,39.50
2018-04-27T21:41:43.779Z,39.90
2018-04-27T21:44:10.112Z,40.20
2018-04-27T21:46:36.443Z,40.80
2018-04-27T21:49:03.760Z,42.00
2018-04-27T21:51:33.772Z,41.90
2018-04-27T21:54:08.903Z,41.90
2018-04-27T21:56:36.951Z,42.30
2018-04-27T21:59:03.316Z,42.30
2018-04-27T22:01:30.536Z,42.70
2018-04-27T22:03:57.676Z,42.70
2018-04-27T22:06:24.037Z,43.30
2018-04-27T22:08:55.044Z,43.00
2018-04-27T22:11:36.302Z,43.10
2018-04-27T22:14:02.668Z,43.70
2018-04-27T22:16:29.004Z,44.10
2018-04-27T22:18:55.321Z,44.30
2018-04-27T22:21:21.635Z,44.80
2018-04-27T22:23:48.767Z,44.70
2018-04-27T22:26:16.157Z,45.10
2018-04-27T22:28:45.015Z,44.50
2018-04-27T22:31:11.340Z,44.50
2018-04-27T22:33:39.655Z,44.90
2018-04-27T22:36:22.836Z,44.80
2018-04-27T22:38:50.725Z,45.50
2018-04-27T22:41:17.055Z,45.50
2018-04-27T22:43:49.405Z,46.10
2018-04-27T22:46:17.338Z,46.00
2018-04-27T22:48:53.875Z,45.20
2018-04-27T22:51:21.157Z,45.90
2018-04-27T22:53:47.565Z,45.90
2018-04-27T22:56:29.750Z,45.90
2018-04-27T22:58:56.124Z,45.90
2018-04-27T23:01:22.444Z,45.70
2018-04-27T23:03:48.763Z,45.70
2018-04-27T23:06:15.072Z,46.30
2018-04-27T23:08:45.099Z,46.40
2018-04-27T23:11:27.943Z,46.30
2018-04-27T23:16:53.392Z,47.70
2018-04-27T23:19:19.711Z,46.90
2018-04-27T23:21:52.776Z,46.60
2018-04-27T23:24:19.117Z,45.80
2018-04-27T23:26:45.440Z,46.30
2018-04-27T23:29:11.791Z,45.60
2018-04-27T23:31:40.003Z,45.10
2018-04-27T23:34:07.084Z,45.20
2018-04-27T23:36:33.405Z,45.20
2018-04-27T23:38:59.707Z,45.10
2018-04-27T23:41:26.002Z,44.50
2018-04-27T23:43:52.439Z,44.40
2018-04-27T23:46:21.484Z,44.30
2018-04-27T23:48:48.552Z,44.50
2018-04-27T23:51:14.868Z,44.50
2018-04-27T23:53:42.815Z,44.50
2018-04-27T23:56:09.868Z,44.60
2018-04-27T23:58:37.755Z,44.60
